sensor_id;sensor_type;location;lat;lon;timestamp;temperature;humidity
19974;DHT22;10148;47.694;9.442;2022-11-04T00:01:20;10.30;99.90
19974;DHT22;10148;47.694;9.442;2022-11-04T00:03:46;10.20;99.90
19974;DHT22;10148;47.694;9.442;2022-11-04T00:06:11;10.20;99.90
19974;DHT22;10148;47.694;9.442;2022-11-04T00:08:37;10.30;99.90
19974;DHT22;10148;47.694;9.442;2022-11-04T00:11:02;10.20;99.90
19974;DHT22;10148;47.694;9.442;2022-11-04T00:13:46;10.20;99.90
19974;DHT22;10148;47.694;9.442;2022-11-04T00:16:12;10.20;99.90
19974;DHT22;10148;47.694;9.442;2022-11-04T00:18:59;10.20;99.90
19974;DHT22;10148;47.694;9.442;2022-11-04T00:21:25;10.20;99.90
19974;DHT22;10148;47.694;9.442;2022-11-04T00:24:11;10.20;99.90
19974;DHT22;10148;47.694;9.442;2022-11-04T00:26:56;10.10;99.90
19974;DHT22;10148;47.694;9.442;2022-11-04T00:29:40;10.10;99.90
19974;DHT22;10148;47.694;9.442;2022-11-04T00:32:06;10.10;99.90
19974;DHT22;10148;47.694;9.442;2022-11-04T00:34:50;10.10;99.90
19974;DHT22;10148;47.694;9.442;2022-11-04T00:37:15;10.10;99.90
19974;DHT22;10148;47.694;9.442;2022-11-04T00:39:41;10.10;99.90
19974;DHT22;10148;47.694;9.442;2022-11-04T00:42:07;10.10;99.90
19974;DHT22;10148;47.694;9.442;2022-11-04T00:44:32;10.10;99.90
19974;DHT22;10148;47.694;9.442;2022-11-04T00:46:58;10.10;99.90
19974;DHT22;10148;47.694;9.442;2022-11-04T00:49:23;10.10;99.90
19974;DHT22;10148;47.694;9.442;2022-11-04T00:51:49;10.10;99.90
19974;DHT22;10148;47.694;9.442;2022-11-04T00:54:15;10.10;99.90
19974;DHT22;10148;47.694;9.442;2022-11-04T00:56:40;10.10;99.90
19974;DHT22;10148;47.694;9.442;2022-11-04T00:59:06;10.10;99.90
19974;DHT22;10148;47.694;9.442;2022-11-04T01:01:32;10.10;99.90
19974;DHT22;10148;47.694;9.442;2022-11-04T01:03:57;10.10;99.90
19974;DHT22;10148;47.694;9.442;2022-11-04T01:06:25;10.10;99.90
19974;DHT22;10148;47.694;9.442;2022-11-04T01:08:59;10.10;99.90
19974;DHT22;10148;47.694;9.442;2022-11-04T01:11:26;10.10;99.90
19974;DHT22;10148;47.694;9.442;2022-11-04T01:13:54;10.10;99.90
19974;DHT22;10148;47.694;9.442;2022-11-04T01:16:20;10.10;99.90
19974;DHT22;10148;47.694;9.442;2022-11-04T01:18:46;10.00;99.90
19974;DHT22;10148;47.694;9.442;2022-11-04T01:21:13;10.00;99.90
19974;DHT22;10148;47.694;9.442;2022-11-04T01:23:40;10.00;99.90
19974;DHT22;10148;47.694;9.442;2022-11-04T01:26:07;10.10;99.90
19974;DHT22;10148;47.694;9.442;2022-11-04T01:28:33;10.10;99.90
19974;DHT22;10148;47.694;9.442;2022-11-04T01:30:58;10.10;99.90
19974;DHT22;10148;47.694;9.442;2022-11-04T01:33:24;10.00;99.90
19974;DHT22;10148;47.694;9.442;2022-11-04T01:35:50;10.00;99.90
19974;DHT22;10148;47.694;9.442;2022-11-04T01:38:16;10.00;99.90
19974;DHT22;10148;47.694;9.442;2022-11-04T01:40:41;9.90;99.90
19974;DHT22;10148;47.694;9.442;2022-11-04T01:43:17;10.00;99.90
19974;DHT22;10148;47.694;9.442;2022-11-04T01:45:53;9.90;99.90
19974;DHT22;10148;47.694;9.442;2022-11-04T01:48:28;9.90;99.90
19974;DHT22;10148;47.694;9.442;2022-11-04T01:50:55;9.90;99.90
19974;DHT22;10148;47.694;9.442;2022-11-04T01:55:53;9.90;99.90
19974;DHT22;10148;47.694;9.442;2022-11-04T01:58:23;9.90;99.90
19974;DHT22;10148;47.694;9.442;2022-11-04T02:00:49;9.90;99.90
19974;DHT22;10148;47.694;9.442;2022-11-04T02:03:23;9.90;99.90
19974;DHT22;10148;47.694;9.442;2022-11-04T02:05:51;9.90;99.90
19974;DHT22;10148;47.694;9.442;2022-11-04T02:08:17;9.80;99.90
19974;DHT22;10148;47.694;9.442;2022-11-04T02:10:53;9.80;99.90
19974;DHT22;10148;47.694;9.442;2022-11-04T02:13:20;9.80;99.90
19974;DHT22;10148;47.694;9.442;2022-11-04T02:19:10;9.80;99.90
19974;DHT22;10148;47.694;9.442;2022-11-04T02:21:55;9.80;99.90
19974;DHT22;10148;47.694;9.442;2022-11-04T02:27:17;9.80;99.90
19974;DHT22;10148;47.694;9.442;2022-11-04T02:35:33;9.80;99.90
19974;DHT22;10148;47.694;9.442;2022-11-04T02:41:12;9.70;99.90
19974;DHT22;10148;47.694;9.442;2022-11-04T02:46:50;9.70;99.90
19974;DHT22;10148;47.694;9.442;2022-11-04T02:52:07;9.70;99.90
19974;DHT22;10148;47.694;9.442;2022-11-04T02:54:40;9.60;99.90
19974;DHT22;10148;47.694;9.442;2022-11-04T02:57:19;9.50;99.90
19974;DHT22;10148;47.694;9.442;2022-11-04T03:00:03;9.50;99.90
19974;DHT22;10148;47.694;9.442;2022-11-04T03:02:56;9.50;99.90
19974;DHT22;10148;47.694;9.442;2022-11-04T03:05:27;9.40;99.90
19974;DHT22;10148;47.694;9.442;2022-11-04T03:07:58;9.30;99.90
19974;DHT22;10148;47.694;9.442;2022-11-04T03:10:46;9.30;99.90
19974;DHT22;10148;47.694;9.442;2022-11-04T03:13:36;9.20;99.90
19974;DHT22;10148;47.694;9.442;2022-11-04T03:16:08;9.20;99.90
19974;DHT22;10148;47.694;9.442;2022-11-04T03:21:12;9.10;99.90
19974;DHT22;10148;47.694;9.442;2022-11-04T03:23:39;9.10;99.90
19974;DHT22;10148;47.694;9.442;2022-11-04T03:26:27;9.10;99.90
19974;DHT22;10148;47.694;9.442;2022-11-04T03:32:36;9.00;99.90
19974;DHT22;10148;47.694;9.442;2022-11-04T03:35:05;9.00;99.90
19974;DHT22;10148;47.694;9.442;2022-11-04T03:37:32;9.00;99.90
19974;DHT22;10148;47.694;9.442;2022-11-04T03:39:58;9.00;99.90
19974;DHT22;10148;47.694;9.442;2022-11-04T03:42:24;9.00;99.90
19974;DHT22;10148;47.694;9.442;2022-11-04T03:44:52;9.00;99.90
19974;DHT22;10148;47.694;9.442;2022-11-04T03:47:20;8.90;99.90
19974;DHT22;10148;47.694;9.442;2022-11-04T03:49:48;8.90;99.90
19974;DHT22;10148;47.694;9.442;2022-11-04T03:52:15;8.90;99.90
19974;DHT22;10148;47.694;9.442;2022-11-04T03:54:42;8.90;99.90
19974;DHT22;10148;47.694;9.442;2022-11-04T04:00:22;8.80;99.90
19974;DHT22;10148;47.694;9.442;2022-11-04T04:02:56;8.90;99.90
19974;DHT22;10148;47.694;9.442;2022-11-04T04:05:32;8.90;99.90
19974;DHT22;10148;47.694;9.442;2022-11-04T04:11:26;8.90;99.90
19974;DHT22;10148;47.694;9.442;2022-11-04T04:17:06;8.80;99.90
19974;DHT22;10148;47.694;9.442;2022-11-04T04:19:33;8.80;99.90
19974;DHT22;10148;47.694;9.442;2022-11-04T04:22:07;8.80;99.90
19974;DHT22;10148;47.694;9.442;2022-11-04T04:24:35;8.80;99.90
19974;DHT22;10148;47.694;9.442;2022-11-04T04:27:22;8.80;99.90
19974;DHT22;10148;47.694;9.442;2022-11-04T04:30:03;8.80;99.90
19974;DHT22;10148;47.694;9.442;2022-11-04T04:32:35;8.80;99.90
19974;DHT22;10148;47.694;9.442;2022-11-04T04:35:03;8.80;99.90
19974;DHT22;10148;47.694;9.442;2022-11-04T04:37:48;8.80;99.90
19974;DHT22;10148;47.694;9.442;2022-11-04T04:40:16;8.80;99.90
19974;DHT22;10148;47.694;9.442;2022-11-04T04:43:02;8.80;99.90
19974;DHT22;10148;47.694;9.442;2022-11-04T04:45:54;8.70;99.90
19974;DHT22;10148;47.694;9.442;2022-11-04T04:48:20;8.80;99.90
19974;DHT22;10148;47.694;9.442;2022-11-04T04:50:49;8.80;99.90
19974;DHT22;10148;47.694;9.442;2022-11-04T04:53:15;8.80;99.90
19974;DHT22;10148;47.694;9.442;2022-11-04T04:55:41;8.80;99.90
19974;DHT22;10148;47.694;9.442;2022-11-04T04:58:06;8.80;99.90
19974;DHT22;10148;47.694;9.442;2022-11-04T05:00:32;8.80;99.90
19974;DHT22;10148;47.694;9.442;2022-11-04T05:02:58;8.80;99.90
19974;DHT22;10148;47.694;9.442;2022-11-04T05:05:23;8.80;99.90
19974;DHT22;10148;47.694;9.442;2022-11-04T05:07:49;8.80;99.90
19974;DHT22;10148;47.694;9.442;2022-11-04T05:10:15;8.80;99.90
19974;DHT22;10148;47.694;9.442;2022-11-04T05:12:41;8.80;99.90
19974;DHT22;10148;47.694;9.442;2022-11-04T05:15:27;8.80;99.90
19974;DHT22;10148;47.694;9.442;2022-11-04T05:17:53;8.80;99.90
19974;DHT22;10148;47.694;9.442;2022-11-04T05:20:20;8.90;99.90
19974;DHT22;10148;47.694;9.442;2022-11-04T05:22:45;8.90;99.90
19974;DHT22;10148;47.694;9.442;2022-11-04T05:25:11;8.90;99.90
19974;DHT22;10148;47.694;9.442;2022-11-04T05:27:36;8.90;99.90
19974;DHT22;10148;47.694;9.442;2022-11-04T05:30:02;8.90;99.90
19974;DHT22;10148;47.694;9.442;2022-11-04T05:32:29;8.90;99.90
19974;DHT22;10148;47.694;9.442;2022-11-04T05:34:55;8.90;99.90
19974;DHT22;10148;47.694;9.442;2022-11-04T05:37:21;8.90;99.90
19974;DHT22;10148;47.694;9.442;2022-11-04T05:39:46;8.90;99.90
19974;DHT22;10148;47.694;9.442;2022-11-04T05:42:12;8.90;99.90
19974;DHT22;10148;47.694;9.442;2022-11-04T05:44:37;8.90;99.90
19974;DHT22;10148;47.694;9.442;2022-11-04T05:47:03;9.00;99.90
19974;DHT22;10148;47.694;9.442;2022-11-04T05:49:29;9.00;99.90
19974;DHT22;10148;47.694;9.442;2022-11-04T05:51:54;9.00;99.90
19974;DHT22;10148;47.694;9.442;2022-11-04T05:54:20;9.00;99.90
19974;DHT22;10148;47.694;9.442;2022-11-04T05:56:45;9.00;99.90
19974;DHT22;10148;47.694;9.442;2022-11-04T05:59:11;9.00;99.90
19974;DHT22;10148;47.694;9.442;2022-11-04T06:01:40;9.00;99.90
19974;DHT22;10148;47.694;9.442;2022-11-04T06:04:16;9.00;99.90
19974;DHT22;10148;47.694;9.442;2022-11-04T06:06:42;9.00;99.90
19974;DHT22;10148;47.694;9.442;2022-11-04T06:09:07;9.00;99.90
19974;DHT22;10148;47.694;9.442;2022-11-04T06:11:33;9.00;99.90
19974;DHT22;10148;47.694;9.442;2022-11-04T06:14:00;9.00;99.90
19974;DHT22;10148;47.694;9.442;2022-11-04T06:16:26;9.00;99.90
19974;DHT22;10148;47.694;9.442;2022-11-04T06:18:52;8.90;99.90
19974;DHT22;10148;47.694;9.442;2022-11-04T06:21:23;8.90;99.90
19974;DHT22;10148;47.694;9.442;2022-11-04T06:23:50;8.90;99.90
19974;DHT22;10148;47.694;9.442;2022-11-04T06:26:16;8.90;99.90
19974;DHT22;10148;47.694;9.442;2022-11-04T06:28:42;9.00;99.90
19974;DHT22;10148;47.694;9.442;2022-11-04T06:31:09;8.90;99.90
19974;DHT22;10148;47.694;9.442;2022-11-04T06:33:35;8.90;99.90
19974;DHT22;10148;47.694;9.442;2022-11-04T06:36:02;8.90;99.90
19974;DHT22;10148;47.694;9.442;2022-11-04T06:38:30;8.90;99.90
19974;DHT22;10148;47.694;9.442;2022-11-04T06:40:56;8.90;99.90
19974;DHT22;10148;47.694;9.442;2022-11-04T06:43:22;8.90;99.90
19974;DHT22;10148;47.694;9.442;2022-11-04T06:45:58;8.90;99.90
19974;DHT22;10148;47.694;9.442;2022-11-04T06:48:25;8.90;99.90
19974;DHT22;10148;47.694;9.442;2022-11-04T06:50:51;8.90;99.90
19974;DHT22;10148;47.694;9.442;2022-11-04T06:53:17;8.90;99.90
19974;DHT22;10148;47.694;9.442;2022-11-04T06:55:42;8.90;99.90
19974;DHT22;10148;47.694;9.442;2022-11-04T06:58:08;8.90;99.90
19974;DHT22;10148;47.694;9.442;2022-11-04T07:00:34;8.90;99.90
19974;DHT22;10148;47.694;9.442;2022-11-04T07:02:59;8.90;99.90
19974;DHT22;10148;47.694;9.442;2022-11-04T07:05:25;8.90;99.90
19974;DHT22;10148;47.694;9.442;2022-11-04T07:07:50;9.00;99.90
19974;DHT22;10148;47.694;9.442;2022-11-04T07:10:16;9.00;99.90
19974;DHT22;10148;47.694;9.442;2022-11-04T07:12:42;9.00;99.90
19974;DHT22;10148;47.694;9.442;2022-11-04T07:15:08;9.10;99.90
19974;DHT22;10148;47.694;9.442;2022-11-04T07:17:34;9.10;99.90
19974;DHT22;10148;47.694;9.442;2022-11-04T07:20:00;9.10;99.90
19974;DHT22;10148;47.694;9.442;2022-11-04T07:22:25;9.10;99.90
19974;DHT22;10148;47.694;9.442;2022-11-04T07:24:51;9.10;99.90
19974;DHT22;10148;47.694;9.442;2022-11-04T07:27:16;9.10;99.90
19974;DHT22;10148;47.694;9.442;2022-11-04T07:29:42;9.10;99.90
19974;DHT22;10148;47.694;9.442;2022-11-04T07:32:08;9.10;99.90
19974;DHT22;10148;47.694;9.442;2022-11-04T07:34:33;9.10;99.90
19974;DHT22;10148;47.694;9.442;2022-11-04T07:36:59;9.20;99.90
19974;DHT22;10148;47.694;9.442;2022-11-04T07:39:24;9.20;99.90
19974;DHT22;10148;47.694;9.442;2022-11-04T07:41:50;9.20;99.90
19974;DHT22;10148;47.694;9.442;2022-11-04T07:44:15;9.20;99.90
19974;DHT22;10148;47.694;9.442;2022-11-04T07:46:41;9.20;99.90
19974;DHT22;10148;47.694;9.442;2022-11-04T07:49:06;9.30;99.90
19974;DHT22;10148;47.694;9.442;2022-11-04T07:51:33;9.30;99.90
19974;DHT22;10148;47.694;9.442;2022-11-04T07:53:58;9.40;99.90
19974;DHT22;10148;47.694;9.442;2022-11-04T07:56:24;9.40;99.90
19974;DHT22;10148;47.694;9.442;2022-11-04T07:58:50;9.40;99.90
19974;DHT22;10148;47.694;9.442;2022-11-04T08:01:19;9.40;99.90
19974;DHT22;10148;47.694;9.442;2022-11-04T08:03:45;9.50;99.90
19974;DHT22;10148;47.694;9.442;2022-11-04T08:06:13;9.50;99.90
19974;DHT22;10148;47.694;9.442;2022-11-04T08:08:38;9.50;99.90
19974;DHT22;10148;47.694;9.442;2022-11-04T08:11:07;9.40;99.90
19974;DHT22;10148;47.694;9.442;2022-11-04T08:13:35;9.40;99.90
19974;DHT22;10148;47.694;9.442;2022-11-04T08:16:03;9.50;99.90
19974;DHT22;10148;47.694;9.442;2022-11-04T08:18:32;9.50;99.90
19974;DHT22;10148;47.694;9.442;2022-11-04T08:20:59;9.50;99.90
19974;DHT22;10148;47.694;9.442;2022-11-04T08:23:25;9.60;99.90
19974;DHT22;10148;47.694;9.442;2022-11-04T08:25:50;9.60;99.90
19974;DHT22;10148;47.694;9.442;2022-11-04T08:28:16;9.60;99.90
19974;DHT22;10148;47.694;9.442;2022-11-04T08:31:03;9.70;99.90
19974;DHT22;10148;47.694;9.442;2022-11-04T08:33:30;9.70;99.90
19974;DHT22;10148;47.694;9.442;2022-11-04T08:35:59;9.70;99.90
19974;DHT22;10148;47.694;9.442;2022-11-04T08:38:25;9.70;99.90
19974;DHT22;10148;47.694;9.442;2022-11-04T08:40:51;9.70;99.90
19974;DHT22;10148;47.694;9.442;2022-11-04T08:43:17;9.70;99.90
19974;DHT22;10148;47.694;9.442;2022-11-04T08:45:44;9.70;99.90
19974;DHT22;10148;47.694;9.442;2022-11-04T08:48:11;9.70;99.90
19974;DHT22;10148;47.694;9.442;2022-11-04T08:50:38;9.70;99.90
19974;DHT22;10148;47.694;9.442;2022-11-04T08:53:04;9.70;99.90
19974;DHT22;10148;47.694;9.442;2022-11-04T08:55:30;9.80;99.90
19974;DHT22;10148;47.694;9.442;2022-11-04T08:57:57;9.80;99.90
19974;DHT22;10148;47.694;9.442;2022-11-04T09:00:23;9.80;99.90
19974;DHT22;10148;47.694;9.442;2022-11-04T09:02:48;9.90;99.90
19974;DHT22;10148;47.694;9.442;2022-11-04T09:05:14;9.90;99.90
19974;DHT22;10148;47.694;9.442;2022-11-04T09:07:40;10.00;99.90
19974;DHT22;10148;47.694;9.442;2022-11-04T09:10:08;10.00;99.90
19974;DHT22;10148;47.694;9.442;2022-11-04T09:12:34;10.10;99.90
19974;DHT22;10148;47.694;9.442;2022-11-04T09:15:00;10.10;99.90
19974;DHT22;10148;47.694;9.442;2022-11-04T09:17:25;10.20;99.90
19974;DHT22;10148;47.694;9.442;2022-11-04T09:19:51;10.20;99.90
19974;DHT22;10148;47.694;9.442;2022-11-04T09:22:16;10.20;99.90
19974;DHT22;10148;47.694;9.442;2022-11-04T09:24:42;10.30;99.90
19974;DHT22;10148;47.694;9.442;2022-11-04T09:27:08;10.30;99.90
19974;DHT22;10148;47.694;9.442;2022-11-04T09:29:34;10.30;99.90
19974;DHT22;10148;47.694;9.442;2022-11-04T09:32:01;10.30;99.90
19974;DHT22;10148;47.694;9.442;2022-11-04T09:34:27;10.30;99.90
19974;DHT22;10148;47.694;9.442;2022-11-04T09:36:56;10.30;99.90
19974;DHT22;10148;47.694;9.442;2022-11-04T09:39:22;10.40;99.90
19974;DHT22;10148;47.694;9.442;2022-11-04T09:45:01;10.50;99.90
19974;DHT22;10148;47.694;9.442;2022-11-04T09:47:29;10.50;99.90
19974;DHT22;10148;47.694;9.442;2022-11-04T09:49:58;10.60;99.90
19974;DHT22;10148;47.694;9.442;2022-11-04T09:52:27;10.70;99.90
19974;DHT22;10148;47.694;9.442;2022-11-04T09:55:00;10.70;99.90
19974;DHT22;10148;47.694;9.442;2022-11-04T09:57:27;10.80;99.90
19974;DHT22;10148;47.694;9.442;2022-11-04T09:59:53;10.90;99.90
19974;DHT22;10148;47.694;9.442;2022-11-04T10:02:32;10.90;99.90
19974;DHT22;10148;47.694;9.442;2022-11-04T10:08:03;11.00;99.90
19974;DHT22;10148;47.694;9.442;2022-11-04T10:10:50;11.00;99.90
19974;DHT22;10148;47.694;9.442;2022-11-04T10:21:46;11.00;99.90
19974;DHT22;10148;47.694;9.442;2022-11-04T10:26:59;11.20;99.90
19974;DHT22;10148;47.694;9.442;2022-11-04T10:32:00;11.30;99.90
19974;DHT22;10148;47.694;9.442;2022-11-04T10:34:52;11.40;99.90
19974;DHT22;10148;47.694;9.442;2022-11-04T10:37:19;11.40;99.90
19974;DHT22;10148;47.694;9.442;2022-11-04T10:39:46;11.50;99.90
19974;DHT22;10148;47.694;9.442;2022-11-04T10:42:15;11.50;99.90
19974;DHT22;10148;47.694;9.442;2022-11-04T10:44:42;11.60;99.90
19974;DHT22;10148;47.694;9.442;2022-11-04T10:47:37;11.70;99.90
19974;DHT22;10148;47.694;9.442;2022-11-04T10:50:25;11.80;99.90
19974;DHT22;10148;47.694;9.442;2022-11-04T10:52:59;11.90;99.90
19974;DHT22;10148;47.694;9.442;2022-11-04T10:55:45;11.80;99.90
19974;DHT22;10148;47.694;9.442;2022-11-04T10:58:38;11.80;99.90
19974;DHT22;10148;47.694;9.442;2022-11-04T11:01:23;11.90;99.90
19974;DHT22;10148;47.694;9.442;2022-11-04T11:03:49;12.00;99.90
19974;DHT22;10148;47.694;9.442;2022-11-04T11:06:29;12.00;99.90
19974;DHT22;10148;47.694;9.442;2022-11-04T11:09:17;12.20;99.90
19974;DHT22;10148;47.694;9.442;2022-11-04T11:11:48;12.30;99.90
19974;DHT22;10148;47.694;9.442;2022-11-04T11:14:33;12.30;99.90
19974;DHT22;10148;47.694;9.442;2022-11-04T11:20:02;12.40;99.90
19974;DHT22;10148;47.694;9.442;2022-11-04T11:22:43;12.30;99.90
19974;DHT22;10148;47.694;9.442;2022-11-04T11:27:38;12.30;99.90
19974;DHT22;10148;47.694;9.442;2022-11-04T11:30:04;12.20;99.90
19974;DHT22;10148;47.694;9.442;2022-11-04T11:32:33;12.10;99.90
19974;DHT22;10148;47.694;9.442;2022-11-04T11:35:00;12.30;99.90
19974;DHT22;10148;47.694;9.442;2022-11-04T11:37:28;12.50;99.90
19974;DHT22;10148;47.694;9.442;2022-11-04T11:39:56;13.00;99.90
19974;DHT22;10148;47.694;9.442;2022-11-04T11:42:22;14.00;99.90
19974;DHT22;10148;47.694;9.442;2022-11-04T11:44:51;15.10;99.90
19974;DHT22;10148;47.694;9.442;2022-11-04T11:47:33;15.70;99.90
19974;DHT22;10148;47.694;9.442;2022-11-04T11:50:15;16.70;99.90
19974;DHT22;10148;47.694;9.442;2022-11-04T11:52:43;16.60;99.90
19974;DHT22;10148;47.694;9.442;2022-11-04T11:55:27;15.80;99.90
19974;DHT22;10148;47.694;9.442;2022-11-04T12:01:15;14.70;99.90
19974;DHT22;10148;47.694;9.442;2022-11-04T12:03:45;14.20;99.90
19974;DHT22;10148;47.694;9.442;2022-11-04T12:14:22;13.40;99.90
19974;DHT22;10148;47.694;9.442;2022-11-04T12:17:08;13.30;99.90
19974;DHT22;10148;47.694;9.442;2022-11-04T12:19:54;13.40;99.90
19974;DHT22;10148;47.694;9.442;2022-11-04T12:36:52;13.50;99.90
19974;DHT22;10148;47.694;9.442;2022-11-04T12:42:16;13.10;99.90
19974;DHT22;10148;47.694;9.442;2022-11-04T12:47:34;13.00;99.90
19974;DHT22;10148;47.694;9.442;2022-11-04T12:52:42;12.90;99.90
19974;DHT22;10148;47.694;9.442;2022-11-04T13:00:40;12.90;99.90
19974;DHT22;10148;47.694;9.442;2022-11-04T13:03:15;12.70;99.90
19974;DHT22;10148;47.694;9.442;2022-11-04T13:05:51;12.60;99.90
19974;DHT22;10148;47.694;9.442;2022-11-04T13:08:23;12.60;99.90
19974;DHT22;10148;47.694;9.442;2022-11-04T13:13:32;12.40;99.90
19974;DHT22;10148;47.694;9.442;2022-11-04T13:16:02;12.40;99.90
19974;DHT22;10148;47.694;9.442;2022-11-04T13:18:34;12.30;99.90
19974;DHT22;10148;47.694;9.442;2022-11-04T13:21:24;12.30;99.90
19974;DHT22;10148;47.694;9.442;2022-11-04T13:24:00;12.40;99.90
19974;DHT22;10148;47.694;9.442;2022-11-04T13:26:26;12.50;99.90
19974;DHT22;10148;47.694;9.442;2022-11-04T13:29:06;12.60;99.90
19974;DHT22;10148;47.694;9.442;2022-11-04T13:31:57;12.80;99.90
19974;DHT22;10148;47.694;9.442;2022-11-04T13:34:36;13.00;99.90
19974;DHT22;10148;47.694;9.442;2022-11-04T13:37:09;13.20;99.90
19974;DHT22;10148;47.694;9.442;2022-11-04T13:40:21;13.40;99.90
19974;DHT22;10148;47.694;9.442;2022-11-04T13:43:18;13.70;99.90
19974;DHT22;10148;47.694;9.442;2022-11-04T13:46:05;14.00;99.90
19974;DHT22;10148;47.694;9.442;2022-11-04T13:51:41;14.70;99.90
19974;DHT22;10148;47.694;9.442;2022-11-04T13:54:26;14.40;99.90
19974;DHT22;10148;47.694;9.442;2022-11-04T13:57:16;15.00;99.90
19974;DHT22;10148;47.694;9.442;2022-11-04T14:16:06;14.60;99.90
19974;DHT22;10148;47.694;9.442;2022-11-04T14:18:44;14.10;99.90
19974;DHT22;10148;47.694;9.442;2022-11-04T14:23:42;13.10;99.90
19974;DHT22;10148;47.694;9.442;2022-11-04T14:26:17;13.00;99.90
19974;DHT22;10148;47.694;9.442;2022-11-04T14:28:46;13.00;99.90
19974;DHT22;10148;47.694;9.442;2022-11-04T14:31:14;13.20;99.90
19974;DHT22;10148;47.694;9.442;2022-11-04T14:33:54;13.50;99.90
19974;DHT22;10148;47.694;9.442;2022-11-04T14:39:37;13.80;99.90
19974;DHT22;10148;47.694;9.442;2022-11-04T14:42:01;14.40;99.90
19974;DHT22;10148;47.694;9.442;2022-11-04T14:44:37;14.80;99.90
19974;DHT22;10148;47.694;9.442;2022-11-04T14:47:14;15.00;99.90
19974;DHT22;10148;47.694;9.442;2022-11-04T14:54:56;14.60;99.90
19974;DHT22;10148;47.694;9.442;2022-11-04T14:57:23;14.50;99.90
19974;DHT22;10148;47.694;9.442;2022-11-04T14:59:48;14.20;99.90
19974;DHT22;10148;47.694;9.442;2022-11-04T15:02:24;14.10;99.90
19974;DHT22;10148;47.694;9.442;2022-11-04T15:04:58;13.70;99.90
19974;DHT22;10148;47.694;9.442;2022-11-04T15:07:35;13.40;99.90
19974;DHT22;10148;47.694;9.442;2022-11-04T15:10:18;13.10;99.90
19974;DHT22;10148;47.694;9.442;2022-11-04T15:12:45;12.80;99.90
19974;DHT22;10148;47.694;9.442;2022-11-04T15:15:40;12.70;99.90
19974;DHT22;10148;47.694;9.442;2022-11-04T15:18:19;12.70;99.90
19974;DHT22;10148;47.694;9.442;2022-11-04T15:20:48;12.80;99.90
19974;DHT22;10148;47.694;9.442;2022-11-04T15:23:19;12.90;99.90
19974;DHT22;10148;47.694;9.442;2022-11-04T15:25:48;13.10;99.90
19974;DHT22;10148;47.694;9.442;2022-11-04T15:28:18;13.20;99.90
19974;DHT22;10148;47.694;9.442;2022-11-04T15:33:27;13.20;99.90
19974;DHT22;10148;47.694;9.442;2022-11-04T15:35:55;13.10;99.90
19974;DHT22;10148;47.694;9.442;2022-11-04T15:38:23;13.10;99.90
19974;DHT22;10148;47.694;9.442;2022-11-04T15:40:50;13.10;99.90
19974;DHT22;10148;47.694;9.442;2022-11-04T15:43:16;13.00;99.90
19974;DHT22;10148;47.694;9.442;2022-11-04T15:45:51;13.00;99.90
19974;DHT22;10148;47.694;9.442;2022-11-04T15:48:31;12.90;99.90
19974;DHT22;10148;47.694;9.442;2022-11-04T15:51:20;12.70;99.90
19974;DHT22;10148;47.694;9.442;2022-11-04T15:53:56;12.50;99.90
19974;DHT22;10148;47.694;9.442;2022-11-04T15:56:41;12.40;99.90
19974;DHT22;10148;47.694;9.442;2022-11-04T15:59:14;12.30;99.90
19974;DHT22;10148;47.694;9.442;2022-11-04T16:01:44;12.20;99.90
19974;DHT22;10148;47.694;9.442;2022-11-04T16:04:10;12.10;99.90
19974;DHT22;10148;47.694;9.442;2022-11-04T16:06:41;12.00;99.90
19974;DHT22;10148;47.694;9.442;2022-11-04T16:12:06;11.80;99.90
19974;DHT22;10148;47.694;9.442;2022-11-04T16:14:31;11.80;99.90
19974;DHT22;10148;47.694;9.442;2022-11-04T16:16:57;11.70;99.90
19974;DHT22;10148;47.694;9.442;2022-11-04T16:19:27;11.60;99.90
19974;DHT22;10148;47.694;9.442;2022-11-04T16:21:59;11.60;99.90
19974;DHT22;10148;47.694;9.442;2022-11-04T16:24:29;11.50;99.90
19974;DHT22;10148;47.694;9.442;2022-11-04T16:26:56;11.50;99.90
19974;DHT22;10148;47.694;9.442;2022-11-04T16:29:32;11.40;99.90
19974;DHT22;10148;47.694;9.442;2022-11-04T16:32:07;11.30;99.90
19974;DHT22;10148;47.694;9.442;2022-11-04T16:34:33;11.40;99.90
19974;DHT22;10148;47.694;9.442;2022-11-04T16:36:59;11.40;99.90
19974;DHT22;10148;47.694;9.442;2022-11-04T16:39:24;11.40;99.90
19974;DHT22;10148;47.694;9.442;2022-11-04T16:41:50;11.40;99.90
19974;DHT22;10148;47.694;9.442;2022-11-04T16:44:20;11.40;99.90
19974;DHT22;10148;47.694;9.442;2022-11-04T16:46:46;11.40;99.90
19974;DHT22;10148;47.694;9.442;2022-11-04T16:49:14;11.40;99.90
19974;DHT22;10148;47.694;9.442;2022-11-04T16:51:40;11.20;99.90
19974;DHT22;10148;47.694;9.442;2022-11-04T16:54:06;11.10;99.90
19974;DHT22;10148;47.694;9.442;2022-11-04T16:56:33;11.10;99.90
19974;DHT22;10148;47.694;9.442;2022-11-04T16:58:58;11.10;99.90
19974;DHT22;10148;47.694;9.442;2022-11-04T17:01:24;11.10;99.90
19974;DHT22;10148;47.694;9.442;2022-11-04T17:03:50;11.10;99.90
19974;DHT22;10148;47.694;9.442;2022-11-04T17:06:16;11.00;99.90
19974;DHT22;10148;47.694;9.442;2022-11-04T17:08:42;11.00;99.90
19974;DHT22;10148;47.694;9.442;2022-11-04T17:11:09;10.90;99.90
19974;DHT22;10148;47.694;9.442;2022-11-04T17:13:35;11.00;99.90
19974;DHT22;10148;47.694;9.442;2022-11-04T17:16:01;10.90;99.90
19974;DHT22;10148;47.694;9.442;2022-11-04T17:18:30;10.90;99.90
19974;DHT22;10148;47.694;9.442;2022-11-04T17:20:56;10.90;99.90
19974;DHT22;10148;47.694;9.442;2022-11-04T17:23:23;10.90;99.90
19974;DHT22;10148;47.694;9.442;2022-11-04T17:25:49;10.90;99.90
19974;DHT22;10148;47.694;9.442;2022-11-04T17:28:15;10.80;99.90
19974;DHT22;10148;47.694;9.442;2022-11-04T17:30:41;10.80;99.90
19974;DHT22;10148;47.694;9.442;2022-11-04T17:33:15;10.80;99.90
19974;DHT22;10148;47.694;9.442;2022-11-04T17:35:43;10.90;99.90
19974;DHT22;10148;47.694;9.442;2022-11-04T17:38:10;10.90;99.90
19974;DHT22;10148;47.694;9.442;2022-11-04T17:40:36;10.80;99.90
19974;DHT22;10148;47.694;9.442;2022-11-04T17:43:22;10.70;99.90
19974;DHT22;10148;47.694;9.442;2022-11-04T17:46:06;10.60;99.90
19974;DHT22;10148;47.694;9.442;2022-11-04T17:48:50;10.50;99.90
19974;DHT22;10148;47.694;9.442;2022-11-04T17:51:16;10.40;99.90
19974;DHT22;10148;47.694;9.442;2022-11-04T17:53:42;10.40;99.90
19974;DHT22;10148;47.694;9.442;2022-11-04T17:56:14;10.40;99.90
19974;DHT22;10148;47.694;9.442;2022-11-04T17:58:40;10.30;99.90
19974;DHT22;10148;47.694;9.442;2022-11-04T18:01:07;10.30;99.90
19974;DHT22;10148;47.694;9.442;2022-11-04T18:03:33;10.30;99.90
19974;DHT22;10148;47.694;9.442;2022-11-04T18:05:58;10.20;99.90
19974;DHT22;10148;47.694;9.442;2022-11-04T18:08:24;10.20;99.90
19974;DHT22;10148;47.694;9.442;2022-11-04T18:10:49;10.20;99.90
19974;DHT22;10148;47.694;9.442;2022-11-04T18:13:15;10.10;99.90
19974;DHT22;10148;47.694;9.442;2022-11-04T18:15:40;10.10;99.90
19974;DHT22;10148;47.694;9.442;2022-11-04T18:18:06;10.10;99.90
19974;DHT22;10148;47.694;9.442;2022-11-04T18:20:31;10.00;99.90